Time;durP1;ratioP1;P1;durP2;ratioP2;P2;SDS_P1;SDS_P2;PMS_P1;PMS_P2;Temp;Humidity;BMP_temperature;BMP_pressure;BME280_temperature;BME280_humidity;BME280_pressure;Samples;Min_cycle;Max_cycle;Signal;HPM_P1;HPM_P2
2023/02/10 00:00:26;;;;;;;176.77;88.67;;;-3.00;99.90;;;;;;5096739;28;20179;-84
2023/02/10 00:02:52;;;;;;;175.23;93.10;;;-3.10;99.90;;;;;;5115077;28;20196;-83
2023/02/10 00:05:18;;;;;;;185.93;91.82;;;-3.10;99.90;;;;;;5114783;28;20183;-84
2023/02/10 00:07:43;;;;;;;195.80;97.03;;;-3.00;99.90;;;;;;5096316;28;20760;-85
2023/02/10 00:10:13;;;;;;;187.27;91.53;;;-3.00;99.90;;;;;;5114864;28;20176;-82
2023/02/10 00:12:39;;;;;;;161.93;79.63;;;-3.10;99.90;;;;;;5096175;28;20430;-85
2023/02/10 00:15:05;;;;;;;151.00;72.57;;;-3.10;99.90;;;;;;5114826;28;20164;-84
2023/02/10 00:17:31;;;;;;;150.82;75.47;;;-3.00;99.90;;;;;;5114680;28;20274;-84
2023/02/10 00:19:57;;;;;;;135.00;68.75;;;-3.00;99.90;;;;;;5114710;28;20176;-84
2023/02/10 00:22:23;;;;;;;146.77;71.33;;;-3.00;99.90;;;;;;5096284;28;20210;-84
2023/02/10 00:24:49;;;;;;;154.80;77.30;;;-3.00;99.90;;;;;;5114593;28;20316;-84
2023/02/10 00:27:15;;;;;;;150.97;73.77;;;-2.90;99.90;;;;;;5096128;28;20713;-84
2023/02/10 00:29:40;;;;;;;144.90;73.70;;;-2.90;99.90;;;;;;5114472;28;20168;-84
2023/02/10 00:32:06;;;;;;;168.97;79.47;;;-2.90;99.90;;;;;;5114350;28;20398;-84
2023/02/10 00:34:32;;;;;;;149.47;73.00;;;-2.90;99.90;;;;;;5096595;28;20260;-85
2023/02/10 00:36:57;;;;;;;148.63;75.03;;;-3.00;99.90;;;;;;5096646;28;20176;-84
2023/02/10 00:39:24;;;;;;;158.10;70.37;;;-3.00;99.90;;;;;;5096214;28;20179;-85
2023/02/10 00:41:49;;;;;;;134.30;71.57;;;-3.00;99.90;;;;;;5096028;28;20171;-85
2023/02/10 00:44:15;;;;;;;127.80;66.53;;;-3.10;99.90;;;;;;5114817;28;20264;-85
2023/02/10 00:46:40;;;;;;;127.47;64.97;;;-3.10;99.90;;;;;;5096010;28;20597;-84
2023/02/10 00:49:06;;;;;;;123.27;61.57;;;-3.20;99.90;;;;;;5096150;28;20196;-85
2023/02/10 00:51:32;;;;;;;126.00;64.03;;;-3.30;99.90;;;;;;5114257;28;20176;-84
2023/02/10 00:53:58;;;;;;;121.63;63.88;;;-3.40;99.90;;;;;;5096104;28;20223;-85
2023/02/10 00:56:23;;;;;;;132.00;66.10;;;-3.30;99.90;;;;;;5095999;28;20652;-84
2023/02/10 00:58:49;;;;;;;124.90;60.00;;;-3.30;99.90;;;;;;5114524;28;20233;-85
2023/02/10 01:01:15;;;;;;;129.93;61.17;;;-3.20;99.90;;;;;;5095833;28;20701;-84
2023/02/10 01:03:41;;;;;;;115.50;58.28;;;-3.10;99.90;;;;;;5114306;28;20207;-85
2023/02/10 01:06:07;;;;;;;116.13;57.28;;;-3.20;99.90;;;;;;5114137;28;20312;-83
2023/02/10 01:08:34;;;;;;;129.30;62.40;;;-3.20;99.90;;;;;;5114325;28;20620;-85
2023/02/10 01:11:06;;;;;;;120.28;56.53;;;-3.30;99.90;;;;;;5095762;28;20271;-85
2023/02/10 01:13:36;;;;;;;127.05;62.30;;;-3.30;99.90;;;;;;5095475;28;20595;-85
2023/02/10 01:16:05;;;;;;;131.98;65.03;;;-3.40;99.90;;;;;;5095677;28;20207;-85
2023/02/10 01:18:31;;;;;;;120.07;60.38;;;-3.40;99.90;;;;;;5114230;28;20184;-85
2023/02/10 01:20:56;;;;;;;129.97;65.30;;;-3.40;99.90;;;;;;5095720;28;20176;-85
2023/02/10 01:23:22;;;;;;;125.30;61.00;;;-3.40;99.90;;;;;;5114613;28;20835;-85
2023/02/10 01:25:48;;;;;;;134.47;63.30;;;-3.30;99.90;;;;;;5116053;28;20492;-84
2023/02/10 01:28:13;;;;;;;112.47;59.30;;;-3.20;99.90;;;;;;5116539;28;20235;-84
2023/02/10 01:30:39;;;;;;;118.87;61.20;;;-3.20;99.90;;;;;;5114317;28;20172;-84
2023/02/10 01:33:05;;;;;;;126.10;62.43;;;-3.40;99.90;;;;;;5117021;28;20203;-85
2023/02/10 01:35:31;;;;;;;129.30;62.57;;;-3.50;99.90;;;;;;5099457;28;20186;-83
2023/02/10 01:37:57;;;;;;;176.23;83.03;;;-3.50;99.90;;;;;;5117990;28;20702;-84
2023/02/10 01:40:25;;;;;;;176.57;77.70;;;-3.70;99.90;;;;;;5099433;28;20180;-84
2023/02/10 01:42:51;;;;;;;170.32;79.68;;;-3.70;99.90;;;;;;5117829;28;20403;-85
2023/02/10 01:45:24;;;;;;;155.25;69.38;;;-3.70;99.90;;;;;;5117617;28;20208;-84
2023/02/10 01:47:51;;;;;;;148.68;66.35;;;-3.70;99.90;;;;;;5117760;28;20218;-85
2023/02/10 01:50:19;;;;;;;166.43;75.53;;;-3.70;99.90;;;;;;5117583;28;20184;-84
2023/02/10 01:52:46;;;;;;;149.10;69.47;;;-3.70;99.90;;;;;;5117512;28;20266;-84
2023/02/10 01:55:15;;;;;;;146.25;70.53;;;-3.80;99.90;;;;;;5099123;28;20188;-84
2023/02/10 01:57:43;;;;;;;149.43;71.90;;;-3.70;99.90;;;;;;5099049;28;20235;-84
2023/02/10 02:00:09;;;;;;;162.68;72.47;;;-3.70;99.90;;;;;;5117410;28;20200;-84
2023/02/10 02:02:36;;;;;;;167.38;76.15;;;-3.70;99.90;;;;;;5098834;28;20208;-86
2023/02/10 02:05:05;;;;;;;159.43;79.90;;;-3.80;99.90;;;;;;5117202;28;20204;-83
2023/02/10 02:07:36;;;;;;;171.98;78.28;;;-3.80;99.90;;;;;;5117275;28;20195;-84
2023/02/10 02:10:06;;;;;;;169.98;75.95;;;-3.80;99.90;;;;;;5099536;28;20205;-86
2023/02/10 02:12:48;;;;;;;141.35;68.60;;;-3.80;99.90;;;;;;5098525;28;20202;-84
2023/02/10 02:15:21;;;;;;;151.35;63.60;;;-4.00;99.90;;;;;;5098763;28;20179;-84
2023/02/10 02:18:18;;;;;;;126.00;61.53;;;-3.90;99.90;;;;;;5098587;28;20204;-84
2023/02/10 02:21:02;;;;;;;128.93;59.33;;;-3.80;99.90;;;;;;5098659;28;20179;-84
2023/02/10 02:23:53;;;;;;;148.95;70.28;;;-3.80;99.90;;;;;;5117276;28;20683;-84
2023/02/10 02:26:44;;;;;;;137.45;66.97;;;-3.80;99.90;;;;;;5098675;28;20204;-84
2023/02/10 02:29:29;;;;;;;132.20;64.93;;;-3.90;99.90;;;;;;5117500;28;20617;-84
2023/02/10 02:32:26;;;;;;;123.63;58.65;;;-3.90;99.90;;;;;;5098296;28;20203;-84
2023/02/10 02:34:54;;;;;;;113.68;60.05;;;-3.80;99.90;;;;;;5098408;28;20171;-84
2023/02/10 02:37:31;;;;;;;119.47;55.58;;;-3.90;99.90;;;;;;5098202;28;20241;-84
2023/02/10 02:39:57;;;;;;;111.88;55.13;;;-3.90;99.90;;;;;;5116613;28;20608;-84
2023/02/10 02:42:27;;;;;;;102.50;50.92;;;-3.90;99.90;;;;;;5116720;28;20194;-85
2023/02/10 02:44:55;;;;;;;98.85;49.13;;;-3.90;99.90;;;;;;5100267;28;20302;-84
2023/02/10 02:48:09;;;;;;;109.35;51.20;;;-4.00;99.90;;;;;;5099394;28;20196;-84
2023/02/10 02:50:40;;;;;;;107.47;53.22;;;-4.00;99.90;;;;;;5076241;28;20528;-85
2023/02/10 02:53:44;;;;;;;104.13;53.33;;;-4.10;99.90;;;;;;5098345;28;20737;-84
2023/02/10 02:56:29;;;;;;;106.28;50.92;;;-4.10;99.90;;;;;;5116324;28;20264;-84
2023/02/10 02:59:15;;;;;;;106.20;54.05;;;-4.20;99.90;;;;;;5117580;28;20279;-85
2023/02/10 03:01:52;;;;;;;122.18;54.70;;;-4.20;99.90;;;;;;5117048;28;20254;-85
2023/02/10 03:04:18;;;;;;;107.03;52.28;;;-4.20;99.90;;;;;;5097806;28;20605;-83
2023/02/10 03:06:44;;;;;;;97.68;49.17;;;-4.20;99.90;;;;;;5116043;28;20651;-84
2023/02/10 03:09:10;;;;;;;110.15;51.75;;;-4.30;99.90;;;;;;5097965;28;20545;-84
2023/02/10 03:11:36;;;;;;;107.40;52.25;;;-4.30;99.90;;;;;;5097666;28;20216;-84
2023/02/10 03:14:01;;;;;;;116.00;53.53;;;-4.30;99.90;;;;;;5097545;28;20296;-84
2023/02/10 03:16:27;;;;;;;103.50;54.93;;;-4.20;99.90;;;;;;5097556;28;20644;-83
2023/02/10 03:18:53;;;;;;;128.67;59.97;;;-4.20;99.90;;;;;;5097397;28;20294;-84
2023/02/10 03:21:18;;;;;;;115.43;59.80;;;-4.20;99.90;;;;;;5097579;28;20198;-84
2023/02/10 03:23:44;;;;;;;100.63;50.90;;;-4.30;99.90;;;;;;5097507;28;20220;-84
2023/02/10 03:26:11;;;;;;;98.47;48.57;;;-4.40;99.90;;;;;;5097442;28;20569;-83
2023/02/10 03:28:36;;;;;;;106.97;47.72;;;-4.40;99.90;;;;;;5115414;28;20188;-84
2023/02/10 03:31:04;;;;;;;101.40;51.03;;;-4.40;99.90;;;;;;5097326;28;20278;-84
2023/02/10 03:33:29;;;;;;;107.25;53.00;;;-4.30;99.90;;;;;;5116275;28;20192;-84
2023/02/10 03:35:55;;;;;;;119.00;55.23;;;-4.30;99.90;;;;;;5098411;28;20179;-83
2023/02/10 03:38:20;;;;;;;111.73;55.20;;;-4.40;99.90;;;;;;5098225;28;20553;-85
2023/02/10 03:40:50;;;;;;;108.10;52.27;;;-4.40;99.90;;;;;;5097109;28;20541;-82
2023/02/10 03:43:16;;;;;;;111.70;55.97;;;-4.40;99.90;;;;;;5097055;28;20202;-83
2023/02/10 03:45:42;;;;;;;116.47;55.37;;;-4.40;99.90;;;;;;5115270;28;20175;-83
2023/02/10 03:48:08;;;;;;;118.87;56.00;;;-4.50;99.90;;;;;;5097002;28;20551;-84
2023/02/10 03:50:34;;;;;;;110.57;52.70;;;-4.50;99.90;;;;;;5115134;28;20179;-83
2023/02/10 03:53:00;;;;;;;108.53;56.10;;;-4.50;99.90;;;;;;5115263;28;20192;-84
2023/02/10 03:55:25;;;;;;;107.43;56.00;;;-4.50;99.90;;;;;;5096291;28;20651;-83
2023/02/10 03:57:51;;;;;;;112.77;54.40;;;-4.60;99.90;;;;;;5096846;28;20206;-84
2023/02/10 04:00:17;;;;;;;120.87;56.57;;;-4.70;99.90;;;;;;5115004;28;20541;-84
2023/02/10 04:02:43;;;;;;;109.63;55.47;;;-4.90;99.90;;;;;;5096525;28;20202;-84
2023/02/10 04:05:09;;;;;;;118.00;58.63;;;-4.80;99.90;;;;;;5114805;28;20290;-83
2023/02/10 04:07:35;;;;;;;117.72;59.15;;;-4.70;99.90;;;;;;5096557;28;21040;-83
2023/02/10 04:10:01;;;;;;;117.13;56.50;;;-4.80;99.90;;;;;;5096531;28;20270;-84
2023/02/10 04:12:26;;;;;;;104.90;53.27;;;-4.90;99.90;;;;;;5114516;28;20472;-84
2023/02/10 04:14:52;;;;;;;112.60;56.17;;;-5.10;99.90;;;;;;5096503;28;20802;-83
2023/02/10 04:17:18;;;;;;;112.33;57.47;;;-5.30;99.90;;;;;;5096471;28;20698;-84
2023/02/10 04:19:44;;;;;;;116.70;57.97;;;-5.20;99.90;;;;;;5096316;28;20180;-83
2023/02/10 04:22:09;;;;;;;126.13;62.90;;;-5.00;99.90;;;;;;5114653;28;20217;-85
2023/02/10 04:24:35;;;;;;;122.87;58.70;;;-4.90;99.90;;;;;;5114576;28;20207;-84
2023/02/10 04:27:00;;;;;;;116.23;55.40;;;-4.80;99.90;;;;;;5114493;28;20587;-84
2023/02/10 04:29:26;;;;;;;128.03;62.70;;;-4.80;99.90;;;;;;5114606;28;20541;-84
2023/02/10 04:31:52;;;;;;;123.57;59.30;;;-4.80;99.90;;;;;;5114303;28;20171;-84
2023/02/10 04:34:18;;;;;;;121.53;59.13;;;-4.70;99.90;;;;;;5096210;28;20176;-83
2023/02/10 04:36:43;;;;;;;117.07;63.60;;;-4.80;99.90;;;;;;5096025;28;20191;-84
2023/02/10 04:39:09;;;;;;;132.97;62.80;;;-4.90;99.90;;;;;;5096401;28;20408;-84
2023/02/10 04:41:35;;;;;;;140.63;65.43;;;-4.90;99.90;;;;;;5114260;28;20251;-84
2023/02/10 04:44:00;;;;;;;139.77;67.43;;;-4.90;99.90;;;;;;5114719;28;20212;-84
2023/02/10 04:46:26;;;;;;;130.97;62.57;;;-4.90;99.90;;;;;;5114343;28;20171;-84
2023/02/10 04:48:52;;;;;;;130.23;65.60;;;-4.90;99.90;;;;;;5114243;28;20195;-84
2023/02/10 04:51:17;;;;;;;134.03;60.70;;;-4.90;99.90;;;;;;5114209;28;20225;-84
2023/02/10 04:53:43;;;;;;;132.13;62.50;;;-5.00;99.90;;;;;;5114607;28;20203;-84
2023/02/10 04:56:09;;;;;;;120.17;61.90;;;-5.00;99.90;;;;;;5114135;28;20171;-84
2023/02/10 04:58:35;;;;;;;136.23;66.40;;;-5.00;99.90;;;;;;5114351;28;20946;-84
2023/02/10 05:01:01;;;;;;;130.33;62.63;;;-4.90;99.90;;;;;;5095902;28;20184;-84
2023/02/10 05:03:28;;;;;;;120.47;59.73;;;-4.90;99.90;;;;;;5095800;28;20464;-83
2023/02/10 05:05:54;;;;;;;132.45;60.38;;;-4.90;99.90;;;;;;5095859;28;20192;-84
2023/02/10 05:08:22;;;;;;;130.13;60.33;;;-4.90;99.90;;;;;;5116545;28;20195;-84
2023/02/10 05:10:48;;;;;;;133.00;65.72;;;-5.00;99.90;;;;;;5118262;28;20453;-85
2023/02/10 05:13:14;;;;;;;121.97;59.55;;;-5.30;99.90;;;;;;5096240;28;20235;-85
2023/02/10 05:15:40;;;;;;;132.60;63.97;;;-5.30;99.90;;;;;;5097840;28;20179;-84
2023/02/10 05:18:05;;;;;;;130.57;62.20;;;-5.20;99.90;;;;;;5096370;28;20754;-84
2023/02/10 05:20:31;;;;;;;149.20;67.40;;;-5.10;99.90;;;;;;5093513;28;20185;-83
2023/02/10 05:22:56;;;;;;;281.13;115.13;;;-5.10;99.90;;;;;;5085397;28;20568;-84
2023/02/10 05:25:23;;;;;;;197.53;84.73;;;-5.10;99.90;;;;;;5093885;28;20215;-83
2023/02/10 05:27:48;;;;;;;145.90;67.88;;;-5.10;99.90;;;;;;5095782;28;20200;-84
2023/02/10 05:30:14;;;;;;;123.63;59.77;;;-5.20;99.90;;;;;;5080788;28;20195;-84
2023/02/10 05:32:41;;;;;;;118.57;58.73;;;-5.40;99.90;;;;;;5089236;28;20203;-85
2023/02/10 05:35:08;;;;;;;179.90;100.47;;;-5.60;99.90;;;;;;5094030;28;20184;-85
2023/02/10 05:37:34;;;;;;;140.20;67.07;;;-5.50;99.90;;;;;;5094972;28;20275;-84
2023/02/10 05:40:01;;;;;;;128.00;61.38;;;-5.50;99.90;;;;;;5095253;28;20192;-85
2023/02/10 05:42:26;;;;;;;148.40;59.80;;;-5.40;99.90;;;;;;5080867;28;20270;-84
2023/02/10 05:44:52;;;;;;;133.23;58.40;;;-5.30;99.90;;;;;;5074797;28;20209;-85
2023/02/10 05:47:18;;;;;;;146.63;69.27;;;-5.30;99.90;;;;;;5074687;28;20196;-85
2023/02/10 05:49:43;;;;;;;125.47;67.43;;;-5.40;99.90;;;;;;5073218;28;20197;-84
2023/02/10 05:52:09;;;;;;;112.33;55.83;;;-5.30;99.90;;;;;;5084702;28;20402;-85
2023/02/10 05:54:35;;;;;;;130.37;63.40;;;-5.30;99.90;;;;;;5090900;28;20180;-84
2023/02/10 05:57:01;;;;;;;129.93;59.65;;;-5.30;99.90;;;;;;5095213;28;20180;-85
2023/02/10 05:59:27;;;;;;;131.87;61.80;;;-5.30;99.90;;;;;;5093694;28;20553;-84
2023/02/10 06:01:52;;;;;;;125.40;58.30;;;-5.30;99.90;;;;;;5094889;28;20920;-85
2023/02/10 06:04:18;;;;;;;117.47;56.30;;;-5.20;99.90;;;;;;5076589;28;20709;-83
2023/02/10 06:06:44;;;;;;;107.53;53.83;;;-5.20;99.90;;;;;;5087908;28;20180;-85
2023/02/10 06:09:09;;;;;;;98.10;51.97;;;-5.10;99.90;;;;;;5083660;28;20912;-86
2023/02/10 06:11:35;;;;;;;105.30;49.50;;;-5.10;99.90;;;;;;5084640;28;20491;-84
2023/02/10 06:14:01;;;;;;;107.67;52.83;;;-5.10;99.90;;;;;;5078567;28;20264;-85
2023/02/10 06:16:27;;;;;;;106.50;53.25;;;-5.20;99.90;;;;;;5075135;28;20246;-85
2023/02/10 06:18:53;;;;;;;91.47;53.97;;;-5.10;99.90;;;;;;5090886;28;20200;-85
2023/02/10 06:21:20;;;;;;;113.90;57.30;;;-5.10;99.90;;;;;;5074127;28;20414;-84
2023/02/10 06:23:46;;;;;;;118.15;57.63;;;-5.30;99.90;;;;;;5089177;28;20304;-85
2023/02/10 06:26:11;;;;;;;135.67;71.30;;;-5.40;99.90;;;;;;5093128;28;20620;-83
2023/02/10 06:28:37;;;;;;;115.97;58.10;;;-5.30;99.90;;;;;;5093111;28;20196;-84
2023/02/10 06:31:03;;;;;;;136.43;73.93;;;-5.20;99.90;;;;;;5085995;28;20179;-83
2023/02/10 06:33:28;;;;;;;154.13;75.10;;;-5.20;99.90;;;;;;5093159;28;20201;-84
2023/02/10 06:35:54;;;;;;;123.63;62.60;;;-5.10;99.90;;;;;;5091769;28;20396;-84
2023/02/10 06:38:20;;;;;;;112.03;55.23;;;-5.00;99.90;;;;;;5096997;28;20204;-85
2023/02/10 06:40:46;;;;;;;103.43;53.47;;;-4.80;99.90;;;;;;5089676;28;20184;-83
2023/02/10 06:43:11;;;;;;;89.65;47.20;;;-4.90;99.90;;;;;;5078895;28;20205;-86
2023/02/10 06:45:37;;;;;;;100.60;50.30;;;-4.80;99.90;;;;;;5081258;28;20637;-85
2023/02/10 06:48:03;;;;;;;109.83;55.37;;;-4.70;99.90;;;;;;5089114;28;20448;-85
2023/02/10 06:50:29;;;;;;;137.52;69.47;;;-4.70;99.90;;;;;;5094045;28;20409;-85
2023/02/10 06:52:55;;;;;;;133.20;71.77;;;-4.60;99.90;;;;;;5084210;28;20226;-85
2023/02/10 06:55:21;;;;;;;106.17;52.10;;;-4.60;99.90;;;;;;5082958;28;20181;-84
2023/02/10 06:57:46;;;;;;;100.97;49.63;;;-4.60;99.90;;;;;;5085445;28;21017;-85
2023/02/10 07:00:14;;;;;;;106.60;52.83;;;-4.70;99.90;;;;;;5083048;28;20661;-85
2023/02/10 07:02:40;;;;;;;168.85;92.60;;;-4.60;99.90;;;;;;5079458;28;20196;-85
2023/02/10 07:05:07;;;;;;;113.43;60.28;;;-4.40;99.90;;;;;;5079900;28;20596;-85
2023/02/10 07:07:36;;;;;;;123.47;58.33;;;-4.20;99.90;;;;;;5080903;28;20219;-85
2023/02/10 07:10:03;;;;;;;114.40;57.30;;;-3.90;99.90;;;;;;5081626;28;20596;-85
2023/02/10 07:12:28;;;;;;;135.48;73.15;;;-3.80;99.90;;;;;;5081481;28;20679;-86
2023/02/10 07:14:54;;;;;;;159.87;78.90;;;-3.70;99.90;;;;;;5082677;28;20184;-85
2023/02/10 07:17:21;;;;;;;153.43;80.60;;;-3.60;99.90;;;;;;5082477;28;20676;-85
2023/02/10 07:19:47;;;;;;;152.70;74.15;;;-3.60;99.90;;;;;;5105274;28;20257;-86
2023/02/10 07:22:13;;;;;;;187.13;90.20;;;-3.40;99.90;;;;;;5108830;28;20196;-86
2023/02/10 07:24:38;;;;;;;516.63;202.15;;;-3.20;99.90;;;;;;5109138;28;20495;-85
2023/02/10 07:27:04;;;;;;;467.40;176.10;;;-2.90;99.90;;;;;;5095542;28;20200;-85
2023/02/10 07:29:31;;;;;;;352.83;146.88;;;-2.60;99.90;;;;;;5080413;28;20678;-87
2023/02/10 07:32:00;;;;;;;272.95;126.18;;;-2.30;99.90;;;;;;5094138;28;20179;-86
2023/02/10 07:34:27;;;;;;;176.25;91.40;;;-1.90;99.90;;;;;;5075755;28;20176;-85
2023/02/10 07:36:55;;;;;;;181.68;88.97;;;-1.50;99.90;;;;;;5094921;28;20270;-84
2023/02/10 07:39:22;;;;;;;171.10;87.03;;;-1.10;99.90;;;;;;5084578;28;20187;-85
2023/02/10 07:41:47;;;;;;;103.35;51.70;;;-0.80;99.90;;;;;;5094634;28;20637;-86
2023/02/10 07:44:13;;;;;;;134.25;79.32;;;-0.50;99.90;;;;;;5081790;28;20256;-85
2023/02/10 07:46:39;;;;;;;97.20;51.30;;;-0.40;99.90;;;;;;5106462;28;20255;-84
2023/02/10 07:49:05;;;;;;;95.77;47.23;;;-0.10;99.90;;;;;;5092438;28;20192;-86
2023/02/10 07:51:30;;;;;;;98.30;52.30;;;0.00;99.90;;;;;;5091719;28;20444;-86
2023/02/10 07:53:56;;;;;;;76.13;44.50;;;0.20;99.90;;;;;;5091407;28;20688;-86
2023/02/10 07:56:22;;;;;;;78.10;43.20;;;0.60;99.90;;;;;;5091139;28;20660;-84
2023/02/10 07:58:47;;;;;;;81.57;45.70;;;1.20;99.90;;;;;;5096113;28;20687;-86
2023/02/10 08:01:13;;;;;;;88.67;48.17;;;1.70;99.90;;;;;;5104750;28;20532;-84
2023/02/10 08:03:39;;;;;;;67.00;38.17;;;2.20;99.90;;;;;;5090960;28;20228;-85
2023/02/10 08:06:05;;;;;;;85.50;43.80;;;2.80;99.90;;;;;;5083894;28;20278;-84
2023/02/10 08:08:31;;;;;;;63.25;34.63;;;3.60;99.90;;;;;;5103784;28;20277;-86
2023/02/10 08:10:57;;;;;;;60.80;33.20;;;4.60;99.90;;;;;;5089501;28;20267;-84
2023/02/10 08:13:24;;;;;;;39.43;22.50;;;5.40;99.90;;;;;;5081690;28;20350;-86
2023/02/10 08:15:50;;;;;;;35.42;23.55;;;6.20;99.30;;;;;;5083330;28;20408;-86
2023/02/10 08:18:16;;;;;;;37.53;22.08;;;6.80;97.20;;;;;;5103308;28;20230;-87
2023/02/10 08:20:42;;;;;;;32.65;20.90;;;7.10;95.20;;;;;;5099452;28;20191;-86
2023/02/10 08:23:14;;;;;;;37.13;22.13;;;7.80;94.60;;;;;;5086311;28;20585;-85
2023/02/10 08:25:40;;;;;;;35.28;22.95;;;8.60;93.20;;;;;;5084311;28;20183;-85
2023/02/10 08:28:06;;;;;;;36.00;23.17;;;9.20;91.40;;;;;;5098763;28;20683;-86
2023/02/10 08:30:31;;;;;;;40.63;24.60;;;9.70;90.30;;;;;;5100500;28;20432;-87
2023/02/10 08:32:57;;;;;;;38.47;23.63;;;10.00;88.00;;;;;;5108866;28;20207;-87
2023/02/10 08:35:24;;;;;;;37.93;24.73;;;10.00;87.00;;;;;;5085204;28;20561;-87
2023/02/10 08:37:49;;;;;;;40.33;25.85;;;10.20;85.50;;;;;;5100595;28;20811;-87
2023/02/10 08:40:15;;;;;;;38.47;26.30;;;10.80;86.40;;;;;;5075097;28;20188;-86
2023/02/10 08:42:41;;;;;;;44.47;28.93;;;11.20;84.00;;;;;;5083273;28;20256;-87
2023/02/10 08:45:07;;;;;;;56.37;34.13;;;11.50;82.60;;;;;;5100922;28;20540;-86
2023/02/10 08:47:34;;;;;;;43.57;28.10;;;12.10;81.20;;;;;;5096648;28;20200;-88
2023/02/10 08:50:00;;;;;;;49.70;32.50;;;12.60;80.30;;;;;;5109846;28;20430;-88
2023/02/10 08:52:26;;;;;;;46.60;31.48;;;13.00;77.50;;;;;;5111469;28;20848;-88
2023/02/10 08:54:52;;;;;;;45.80;29.63;;;13.20;76.30;;;;;;5083928;28;20184;-86
2023/02/10 08:57:18;;;;;;;41.93;29.73;;;13.10;75.70;;;;;;5104443;28;20447;-88
2023/02/10 08:59:44;;;;;;;39.77;29.27;;;13.10;74.90;;;;;;5087512;28;20432;-87
2023/02/10 09:02:11;;;;;;;44.23;30.47;;;13.10;75.40;;;;;;5086381;28;20960;-86
2023/02/10 09:04:37;;;;;;;46.77;29.77;;;12.60;74.00;;;;;;5086052;28;20203;-86
2023/02/10 09:07:03;;;;;;;48.10;31.47;;;12.00;74.60;;;;;;5087655;28;20869;-87
2023/02/10 09:09:29;;;;;;;42.33;28.03;;;12.20;75.10;;;;;;5086264;28;20437;-86
2023/02/10 09:11:55;;;;;;;47.03;29.90;;;12.50;74.60;;;;;;5100086;28;20440;-85
2023/02/10 09:14:21;;;;;;;47.37;30.60;;;12.30;73.70;;;;;;5110183;28;20486;-86
2023/02/10 09:16:48;;;;;;;38.83;27.03;;;12.20;75.60;;;;;;5088678;28;20480;-87
2023/02/10 09:19:13;;;;;;;48.42;31.23;;;12.40;74.80;;;;;;5085867;28;20510;-85
2023/02/10 09:21:39;;;;;;;39.00;27.60;;;11.90;73.60;;;;;;5109406;28;20630;-85
2023/02/10 09:24:05;;;;;;;42.80;29.60;;;11.30;74.30;;;;;;5101898;28;20845;-86
2023/02/10 09:26:31;;;;;;;40.40;27.70;;;10.90;75.60;;;;;;5099570;28;20203;-85
2023/02/10 09:28:57;;;;;;;45.73;29.70;;;10.70;76.10;;;;;;5098794;28;20487;-85
2023/02/10 09:31:23;;;;;;;33.85;23.90;;;10.50;76.00;;;;;;5085253;28;20192;-85
2023/02/10 09:33:49;;;;;;;36.40;23.13;;;10.30;76.20;;;;;;5082638;28;20344;-87
2023/02/10 09:36:18;;;;;;;40.97;24.87;;;10.10;76.80;;;;;;5085163;28;20275;-86
2023/02/10 09:38:44;;;;;;;34.60;24.35;;;10.80;75.00;;;;;;5104962;28;20502;-85
2023/02/10 09:41:15;;;;;;;39.85;25.02;;;11.60;75.80;;;;;;5102402;28;20707;-84
2023/02/10 09:44:10;;;;;;;30.23;20.23;;;12.30;74.10;;;;;;5088670;28;20212;-85
2023/02/10 09:46:39;;;;;;;36.63;28.73;;;12.70;71.30;;;;;;5096793;28;20442;-85
2023/02/10 09:49:42;;;;;;;27.10;20.03;;;12.90;73.70;;;;;;5115613;28;20452;-85
2023/02/10 09:52:52;;;;;;;30.63;20.47;;;13.10;70.10;;;;;;5107447;28;20508;-86
2023/02/10 09:55:45;;;;;;;26.70;18.57;;;13.20;70.50;;;;;;5004405;28;20519;-83
2023/02/10 09:58:16;;;;;;;28.53;20.53;;;13.30;70.50;;;;;;5105784;28;20600;-84
2023/02/10 10:00:44;;;;;;;27.63;19.20;;;13.10;70.80;;;;;;5111430;28;20432;-84
2023/02/10 10:03:17;;;;;;;30.70;18.10;;;13.00;69.70;;;;;;5092770;28;20455;-85
2023/02/10 10:06:01;;;;;;;26.50;18.50;;;13.00;69.60;;;;;;5095385;28;20535;-85
2023/02/10 10:08:53;;;;;;;28.90;18.30;;;12.90;69.40;;;;;;5088815;28;20546;-85
2023/02/10 10:11:44;;;;;;;28.97;20.40;;;12.60;69.60;;;;;;5094954;27;20445;-84
2023/02/10 10:14:20;;;;;;;25.83;17.47;;;12.00;70.40;;;;;;5101195;27;20503;-84
2023/02/10 10:17:23;;;;;;;26.67;18.07;;;11.50;70.70;;;;;;5105522;28;20443;-84
2023/02/10 10:20:17;;;;;;;25.88;19.30;;;10.90;71.80;;;;;;5079399;28;20451;-84
2023/02/10 10:23:02;;;;;;;27.63;19.35;;;10.20;72.50;;;;;;5105663;28;20200;-85
2023/02/10 10:26:02;;;;;;;27.75;18.73;;;9.30;74.00;;;;;;5106622;28;20216;-83
2023/02/10 10:29:08;;;;;;;27.80;18.45;;;8.60;74.80;;;;;;5065725;28;20257;-87
2023/02/10 10:31:40;;;;;;;33.00;22.38;;;8.20;74.90;;;;;;5089244;28;20498;-84
2023/02/10 10:34:16;;;;;;;31.60;21.42;;;7.70;77.20;;;;;;5107999;28;20195;-84
2023/02/10 10:36:45;;;;;;;36.85;21.92;;;7.30;78.30;;;;;;5092509;28;20213;-83
2023/02/10 10:39:23;;;;;;;28.30;20.35;;;7.00;78.90;;;;;;5106722;28;20183;-84
2023/02/10 10:41:50;;;;;;;31.90;21.88;;;7.10;79.10;;;;;;5105392;27;20192;-84
2023/02/10 10:44:17;;;;;;;33.80;20.77;;;7.20;79.30;;;;;;5091833;28;20215;-83
2023/02/10 10:47:15;;;;;;;31.35;18.77;;;7.00;77.80;;;;;;5094587;28;20236;-82
2023/02/10 10:49:40;;;;;;;33.25;23.27;;;6.90;78.30;;;;;;5080835;28;20795;-85
2023/02/10 10:52:31;;;;;;;25.80;18.37;;;6.60;78.40;;;;;;5107835;28;20196;-83
2023/02/10 10:54:57;;;;;;;26.02;15.73;;;6.40;78.00;;;;;;5088223;28;20183;-83
2023/02/10 10:57:26;;;;;;;29.47;19.60;;;6.20;78.60;;;;;;5108097;28;20198;-85
2023/02/10 11:00:03;;;;;;;27.77;18.33;;;6.00;80.50;;;;;;5104534;28;20424;-84
2023/02/10 11:02:29;;;;;;;29.33;18.38;;;6.30;79.90;;;;;;5091176;28;20502;-85
2023/02/10 11:05:10;;;;;;;31.77;18.47;;;6.60;79.50;;;;;;5083478;28;20208;-83
2023/02/10 11:07:38;;;;;;;29.67;17.27;;;6.70;79.50;;;;;;5085236;28;20203;-85
2023/02/10 11:10:05;;;;;;;27.08;15.88;;;6.70;78.40;;;;;;5109025;28;20179;-84
2023/02/10 11:12:36;;;;;;;20.55;13.35;;;6.20;77.40;;;;;;5109993;28;20204;-84
2023/02/10 11:15:23;;;;;;;22.23;15.00;;;6.10;78.50;;;;;;5110425;28;20195;-85
2023/02/10 11:17:49;;;;;;;22.63;16.02;;;6.20;79.10;;;;;;5108731;28;20204;-84
2023/02/10 11:20:15;;;;;;;20.92;13.55;;;6.50;78.90;;;;;;5084895;28;20634;-85
2023/02/10 11:22:43;;;;;;;17.57;13.67;;;6.60;77.80;;;;;;5105116;28;20375;-84
2023/02/10 11:25:24;;;;;;;19.45;14.30;;;6.70;76.90;;;;;;5085511;28;20729;-84
2023/02/10 11:27:50;;;;;;;14.57;9.90;;;6.50;77.70;;;;;;5114071;28;20212;-83
2023/02/10 11:30:30;;;;;;;25.83;17.60;;;6.60;75.60;;;;;;5106771;28;20230;-84
2023/02/10 11:32:57;;;;;;;23.73;16.48;;;6.70;73.90;;;;;;5104337;28;20219;-84
2023/02/10 11:35:24;;;;;;;15.52;10.45;;;6.70;75.40;;;;;;5103117;28;20218;-84
2023/02/10 11:37:59;;;;;;;29.52;18.30;;;6.90;74.00;;;;;;5108047;28;20204;-85
2023/02/10 11:40:28;;;;;;;24.73;17.33;;;7.10;74.50;;;;;;5109807;28;20221;-84
2023/02/10 11:42:57;;;;;;;23.83;15.10;;;6.90;75.00;;;;;;5091605;28;20200;-84
2023/02/10 11:45:31;;;;;;;38.20;24.02;;;6.60;75.10;;;;;;5091759;28;20285;-85
2023/02/10 11:48:12;;;;;;;20.85;13.70;;;6.50;76.00;;;;;;5086523;28;20200;-84
2023/02/10 11:50:38;;;;;;;25.17;15.50;;;6.50;75.40;;;;;;5099613;28;20184;-85
2023/02/10 11:53:04;;;;;;;19.90;12.30;;;6.40;75.30;;;;;;5102353;28;20578;-84
2023/02/10 11:55:45;;;;;;;31.17;17.85;;;6.30;76.30;;;;;;5088889;28;20184;-84
2023/02/10 12:01:33;;;;;;;18.17;11.27;;;6.30;75.60;;;;;;5102119;28;20426;-83
2023/02/10 12:04:18;;;;;;;18.20;10.63;;;6.40;75.90;;;;;;5089594;28;20222;-84
2023/02/10 12:06:47;;;;;;;13.18;7.60;;;6.80;75.00;;;;;;5095253;28;20461;-83
2023/02/10 12:09:22;;;;;;;19.23;14.32;;;6.80;75.10;;;;;;5078529;28;20286;-84
2023/02/10 12:12:22;;;;;;;19.17;13.25;;;6.70;76.50;;;;;;5079086;28;20191;-85
2023/02/10 12:15:13;;;;;;;33.45;19.05;;;6.70;76.30;;;;;;5092372;28;20802;-85
2023/02/10 12:18:10;;;;;;;20.85;12.85;;;6.70;75.80;;;;;;5075454;28;20345;-84
2023/02/10 12:20:41;;;;;;;18.27;12.45;;;6.90;75.40;;;;;;5095815;28;20201;-83
2023/02/10 12:23:24;;;;;;;37.65;21.63;;;6.70;76.50;;;;;;5081527;28;20257;-84
2023/02/10 12:25:53;;;;;;;19.45;11.43;;;6.80;75.90;;;;;;5095763;28;20676;-84
2023/02/10 12:28:54;;;;;;;20.27;12.88;;;6.80;75.60;;;;;;5105298;28;20365;-84
2023/02/10 12:32:00;;;;;;;24.83;18.63;;;6.70;75.90;;;;;;5110525;28;20157;-83
2023/02/10 12:35:07;;;;;;;21.35;13.40;;;6.80;77.30;;;;;;5094821;28;20178;-85
2023/02/10 12:37:37;;;;;;;22.67;12.35;;;6.90;76.00;;;;;;5031030;28;20194;-85
2023/02/10 12:40:47;;;;;;;19.40;12.27;;;6.70;75.80;;;;;;5065744;28;20184;-84